Terminal Aerodrome Forecast
Issued by NWS Midland/Odessa, TX

Home | Current Version | Previous Version | Text Only | Print | Product List | Glossary On
Versions: 1 2 3 4 5 6 7 8 9 10 11 12 13 14 15 16 17 18 19 20 21 22
526
FTUS44 KMAF 281120
TAFMAF
TAF
KMAF 281120Z 2812/2912 20008KT P6SM SKC
     FM281600 17013G23KT P6SM SCT130 SCT250
     FM290200 11015KT P6SM FEW120 OVC200
     FM290800 10019KT P6SM OVC019
     FM291100 08020KT P6SM OVC030=

USA.gov is the U.S. government's official web portal to all federal, state and local government web resources and services.